createdAt,value
2023-02-14T00:00:39.211Z,100.00
2023-02-14T00:03:05.765Z,100.00
2023-02-14T00:05:32.242Z,100.00
2023-02-14T00:07:58.684Z,100.00
2023-02-14T00:10:25.150Z,100.00
2023-02-14T00:12:51.598Z,100.00
2023-02-14T00:15:23.854Z,100.00
2023-02-14T00:17:54.476Z,100.00
2023-02-14T00:20:22.227Z,100.00
2023-02-14T00:22:48.870Z,100.00
2023-02-14T00:25:15.566Z,100.00
2023-02-14T00:27:42.100Z,100.00
2023-02-14T00:30:10.195Z,100.00
2023-02-14T00:32:40.698Z,100.00
2023-02-14T00:35:09.269Z,100.00
2023-02-14T00:37:36.123Z,100.00
2023-02-14T00:40:03.215Z,100.00
2023-02-14T00:42:29.621Z,100.00
2023-02-14T00:44:56.102Z,100.00
2023-02-14T00:47:22.607Z,100.00
2023-02-14T00:49:49.139Z,100.00
2023-02-14T00:52:15.639Z,100.00
2023-02-14T00:54:42.229Z,100.00
2023-02-14T00:57:08.686Z,100.00
2023-02-14T00:59:35.150Z,100.00
2023-02-14T01:02:01.634Z,100.00
2023-02-14T01:04:28.123Z,100.00
2023-02-14T01:06:54.599Z,100.00
2023-02-14T01:09:21.043Z,100.00
2023-02-14T01:11:48.688Z,100.00
2023-02-14T01:14:18.173Z,100.00
2023-02-14T01:16:44.470Z,100.00
2023-02-14T01:19:10.978Z,100.00
2023-02-14T01:21:37.476Z,100.00
2023-02-14T01:24:06.576Z,100.00
2023-02-14T01:26:34.015Z,100.00
2023-02-14T01:29:00.461Z,100.00
2023-02-14T01:31:29.692Z,100.00
2023-02-14T01:33:56.802Z,100.00
2023-02-14T01:36:29.534Z,100.00
2023-02-14T01:38:59.023Z,100.00
2023-02-14T01:41:27.581Z,100.00
2023-02-14T01:43:54.199Z,100.00
2023-02-14T01:46:20.730Z,100.00
2023-02-14T01:48:47.522Z,100.00
2023-02-14T01:51:16.958Z,100.00
2023-02-14T01:53:43.497Z,100.00
2023-02-14T01:56:14.981Z,100.00
2023-02-14T01:58:45.093Z,100.00
2023-02-14T02:01:16.799Z,100.00
2023-02-14T02:03:54.677Z,100.00
2023-02-14T02:06:29.462Z,100.00
2023-02-14T02:09:17.134Z,100.00
2023-02-14T02:11:44.075Z,100.00
2023-02-14T02:14:15.930Z,100.00
2023-02-14T02:16:54.610Z,100.00
2023-02-14T02:19:51.197Z,100.00
2023-02-14T02:22:34.945Z,100.00
2023-02-14T02:25:07.437Z,100.00
2023-02-14T02:27:45.238Z,100.00
2023-02-14T02:30:45.107Z,100.00
2023-02-14T02:33:23.430Z,100.00
2023-02-14T02:35:54.493Z,100.00
2023-02-14T02:38:54.333Z,100.00
2023-02-14T02:41:38.963Z,100.00
2023-02-14T02:44:21.454Z,100.00
2023-02-14T02:47:36.072Z,100.00
2023-02-14T02:50:24.671Z,100.00
2023-02-14T02:53:06.235Z,100.00
2023-02-14T02:56:10.638Z,100.00
2023-02-14T02:58:43.026Z,100.00
2023-02-14T03:01:14.091Z,100.00
2023-02-14T03:04:04.049Z,100.00
2023-02-14T03:06:31.685Z,100.00
2023-02-14T03:08:58.110Z,100.00
2023-02-14T03:11:25.848Z,100.00
2023-02-14T03:14:07.882Z,100.00
2023-02-14T03:16:41.495Z,100.00
2023-02-14T03:19:26.147Z,100.00
2023-02-14T03:22:00.750Z,100.00
2023-02-14T03:24:49.035Z,100.00
2023-02-14T03:27:25.520Z,100.00
2023-02-14T03:30:22.810Z,100.00
2023-02-14T03:33:17.336Z,100.00
2023-02-14T03:36:10.051Z,100.00
2023-02-14T03:39:22.014Z,100.00
2023-02-14T03:41:56.668Z,100.00
2023-02-14T03:44:28.418Z,100.00
2023-02-14T03:47:06.381Z,100.00
2023-02-14T03:49:37.032Z,100.00
2023-02-14T03:52:06.429Z,100.00
2023-02-14T03:54:33.962Z,100.00
2023-02-14T03:57:14.279Z,100.00
2023-02-14T03:59:41.894Z,100.00
2023-02-14T04:02:19.751Z,100.00
2023-02-14T04:04:49.436Z,100.00
2023-02-14T04:07:19.569Z,100.00
2023-02-14T04:09:46.379Z,100.00
2023-02-14T04:12:14.101Z,100.00
2023-02-14T04:14:40.920Z,100.00
2023-02-14T04:17:26.691Z,100.00
2023-02-14T04:19:53.277Z,100.00
2023-02-14T04:22:19.901Z,100.00
2023-02-14T04:24:46.414Z,100.00
2023-02-14T04:27:13.309Z,100.00
2023-02-14T04:29:50.000Z,100.00
2023-02-14T04:32:21.850Z,100.00
2023-02-14T04:34:48.784Z,100.00
2023-02-14T04:37:17.433Z,100.00
2023-02-14T04:39:43.851Z,100.00
2023-02-14T04:42:10.516Z,100.00
2023-02-14T04:44:38.196Z,100.00
2023-02-14T04:47:05.790Z,100.00
2023-02-14T04:49:32.708Z,100.00
2023-02-14T04:51:59.790Z,100.00
2023-02-14T04:54:26.352Z,100.00
2023-02-14T04:56:52.776Z,100.00
2023-02-14T04:59:19.269Z,100.00
2023-02-14T05:01:45.756Z,100.00
2023-02-14T05:04:12.477Z,100.00
2023-02-14T05:06:38.879Z,100.00
2023-02-14T05:09:05.407Z,100.00
2023-02-14T05:11:32.606Z,100.00
2023-02-14T05:13:59.096Z,100.00
2023-02-14T05:16:25.727Z,100.00
2023-02-14T05:18:52.296Z,100.00
2023-02-14T05:21:18.739Z,100.00
2023-02-14T05:23:45.322Z,100.00
2023-02-14T05:26:11.779Z,100.00
2023-02-14T05:28:40.768Z,100.00
2023-02-14T05:31:08.150Z,100.00
2023-02-14T05:33:34.639Z,100.00
2023-02-14T05:36:02.634Z,100.00
2023-02-14T05:38:29.996Z,100.00
2023-02-14T05:40:56.832Z,100.00
2023-02-14T05:43:23.502Z,100.00
2023-02-14T05:45:50.048Z,100.00
2023-02-14T05:48:16.518Z,100.00
2023-02-14T05:50:45.134Z,100.00
2023-02-14T05:53:12.064Z,100.00
2023-02-14T05:55:38.565Z,100.00
2023-02-14T05:58:05.251Z,100.00
2023-02-14T06:00:31.709Z,100.00
2023-02-14T06:02:58.193Z,100.00
2023-02-14T06:05:24.665Z,100.00
2023-02-14T06:07:51.233Z,100.00
2023-02-14T06:10:19.377Z,100.00
2023-02-14T06:12:48.055Z,100.00
2023-02-14T06:15:14.988Z,100.00
2023-02-14T06:17:41.406Z,100.00
2023-02-14T06:20:09.569Z,100.00
2023-02-14T06:22:37.187Z,100.00
2023-02-14T06:25:04.758Z,100.00
2023-02-14T06:27:32.244Z,100.00
2023-02-14T06:29:58.937Z,100.00
2023-02-14T06:32:25.431Z,100.00
2023-02-14T06:34:51.872Z,100.00
2023-02-14T06:37:18.307Z,100.00
2023-02-14T06:39:45.412Z,100.00
2023-02-14T06:42:11.922Z,100.00
2023-02-14T06:44:38.391Z,100.00
2023-02-14T06:47:04.962Z,100.00
2023-02-14T06:49:31.626Z,100.00
2023-02-14T06:52:01.072Z,100.00
2023-02-14T06:54:27.528Z,100.00
2023-02-14T06:56:54.059Z,100.00
2023-02-14T06:59:20.534Z,100.00
2023-02-14T07:01:47.019Z,100.00
2023-02-14T07:04:13.661Z,100.00
2023-02-14T07:06:40.158Z,100.00
2023-02-14T07:09:07.229Z,100.00
2023-02-14T07:11:33.649Z,100.00
2023-02-14T07:14:00.109Z,100.00
2023-02-14T07:16:26.530Z,100.00
2023-02-14T07:18:52.994Z,100.00
2023-02-14T07:21:19.528Z,100.00
2023-02-14T07:23:47.639Z,100.00
2023-02-14T07:26:18.033Z,100.00
2023-02-14T07:28:49.115Z,100.00
2023-02-14T07:31:17.033Z,100.00
2023-02-14T07:33:43.760Z,100.00
2023-02-14T07:36:10.719Z,100.00
2023-02-14T07:38:37.394Z,100.00
2023-02-14T07:41:04.277Z,100.00
2023-02-14T07:43:30.787Z,100.00
2023-02-14T07:45:57.285Z,100.00
2023-02-14T07:48:25.165Z,100.00
2023-02-14T07:50:51.768Z,100.00
2023-02-14T07:53:18.253Z,100.00
2023-02-14T07:55:49.698Z,100.00
2023-02-14T07:58:16.230Z,100.00
2023-02-14T08:00:42.718Z,100.00
2023-02-14T08:03:09.324Z,100.00
2023-02-14T08:05:36.011Z,100.00
2023-02-14T08:08:02.598Z,100.00
2023-02-14T08:10:29.129Z,100.00
2023-02-14T08:13:01.510Z,100.00
2023-02-14T08:15:50.813Z,100.00
2023-02-14T08:18:18.332Z,100.00
2023-02-14T08:20:51.044Z,100.00
2023-02-14T08:23:18.944Z,100.00
2023-02-14T08:25:45.905Z,100.00
2023-02-14T08:28:13.747Z,100.00
2023-02-14T08:30:41.579Z,100.00
2023-02-14T08:33:08.096Z,100.00
2023-02-14T08:35:35.399Z,100.00
2023-02-14T08:38:02.098Z,100.00
2023-02-14T08:40:29.047Z,100.00
2023-02-14T08:42:55.542Z,100.00
2023-02-14T08:45:22.530Z,100.00
2023-02-14T08:47:48.980Z,100.00
2023-02-14T08:50:17.427Z,100.00
2023-02-14T08:52:44.285Z,100.00
2023-02-14T08:55:12.755Z,100.00
2023-02-14T08:57:40.014Z,100.00
2023-02-14T09:00:07.847Z,100.00
2023-02-14T09:02:34.493Z,100.00
2023-02-14T09:05:01.115Z,100.00
2023-02-14T09:07:27.847Z,100.00
2023-02-14T09:09:54.343Z,100.00
2023-02-14T09:12:20.941Z,100.00
2023-02-14T09:14:47.438Z,100.00
2023-02-14T09:17:15.167Z,100.00
2023-02-14T09:19:42.226Z,100.00
2023-02-14T09:22:10.480Z,100.00
2023-02-14T09:24:38.386Z,100.00
2023-02-14T09:27:05.684Z,100.00
2023-02-14T09:29:33.920Z,100.00
2023-02-14T09:32:02.150Z,100.00
2023-02-14T09:34:48.749Z,100.00
2023-02-14T09:37:15.321Z,100.00
2023-02-14T09:39:41.751Z,100.00
2023-02-14T09:42:26.310Z,100.00
2023-02-14T09:45:02.480Z,100.00
2023-02-14T09:47:39.866Z,100.00
2023-02-14T09:50:13.844Z,100.00
2023-02-14T09:52:40.516Z,100.00
2023-02-14T09:55:14.729Z,100.00
2023-02-14T09:57:46.881Z,100.00
2023-02-14T10:00:31.881Z,100.00
2023-02-14T10:03:12.361Z,100.00
2023-02-14T10:06:00.045Z,100.00
2023-02-14T10:08:53.645Z,100.00
2023-02-14T10:11:24.607Z,100.00
2023-02-14T10:13:56.506Z,100.00
2023-02-14T10:16:33.422Z,100.00
2023-02-14T10:19:05.631Z,100.00
2023-02-14T10:21:39.844Z,100.00
2023-02-14T10:25:01.157Z,100.00
2023-02-14T10:27:37.128Z,100.00
2023-02-14T10:30:13.555Z,100.00
2023-02-14T10:33:16.969Z,100.00
2023-02-14T10:35:48.272Z,100.00
2023-02-14T10:38:33.584Z,100.00
2023-02-14T10:41:37.524Z,100.00
2023-02-14T10:44:14.880Z,100.00
2023-02-14T10:46:52.698Z,100.00
2023-02-14T10:49:27.124Z,100.00
2023-02-14T10:52:20.980Z,100.00
2023-02-14T10:54:59.945Z,100.00
2023-02-14T10:57:29.217Z,100.00
2023-02-14T11:00:02.762Z,100.00
2023-02-14T11:02:36.249Z,100.00
2023-02-14T11:05:04.566Z,100.00
2023-02-14T11:07:31.156Z,100.00
2023-02-14T11:09:57.786Z,100.00
2023-02-14T11:12:37.375Z,100.00
2023-02-14T11:15:14.792Z,100.00
2023-02-14T11:17:42.495Z,100.00
2023-02-14T11:20:27.764Z,100.00
2023-02-14T11:22:54.354Z,100.00
2023-02-14T11:25:25.062Z,100.00
2023-02-14T11:28:02.683Z,100.00
2023-02-14T11:30:29.172Z,100.00
2023-02-14T11:32:56.353Z,100.00
2023-02-14T11:35:28.497Z,100.00
2023-02-14T11:37:56.980Z,99.53
2023-02-14T11:40:35.110Z,99.58
2023-02-14T11:43:19.068Z,100.00
2023-02-14T11:45:47.780Z,100.00
2023-02-14T11:48:37.696Z,100.00
2023-02-14T11:51:13.614Z,100.00
2023-02-14T11:53:46.331Z,99.78
2023-02-14T11:56:14.245Z,100.00
2023-02-14T11:59:02.981Z,100.00
2023-02-14T12:01:32.419Z,100.00
2023-02-14T12:04:03.119Z,100.00
2023-02-14T12:06:33.554Z,99.92
2023-02-14T12:09:32.489Z,99.32
2023-02-14T12:12:18.188Z,97.98
2023-02-14T12:14:45.062Z,98.52
2023-02-14T12:17:11.507Z,98.99
2023-02-14T12:19:55.172Z,98.27
2023-02-14T12:22:29.478Z,98.08
2023-02-14T12:25:16.976Z,97.15
2023-02-14T12:28:07.390Z,97.16
2023-02-14T12:30:35.200Z,96.27
2023-02-14T12:33:01.924Z,96.85
2023-02-14T12:35:47.142Z,95.98
2023-02-14T12:38:28.733Z,96.21
2023-02-14T12:41:02.379Z,95.65
2023-02-14T12:43:50.609Z,96.43
2023-02-14T12:49:08.142Z,94.54
2023-02-14T12:51:50.413Z,95.35
2023-02-14T12:54:29.032Z,94.54
2023-02-14T12:56:55.395Z,94.58
2023-02-14T12:59:54.785Z,94.59
2023-02-14T13:02:47.824Z,92.68
2023-02-14T13:05:42.341Z,92.13
2023-02-14T13:08:18.142Z,92.74
2023-02-14T13:11:09.123Z,92.56
2023-02-14T13:14:04.543Z,94.18
2023-02-14T13:16:56.696Z,93.90
2023-02-14T13:19:35.395Z,91.03
2023-02-14T13:22:05.204Z,91.26
2023-02-14T13:24:44.800Z,90.99
2023-02-14T13:27:22.549Z,92.08
2023-02-14T13:30:01.150Z,91.14
2023-02-14T13:32:33.284Z,91.22
2023-02-14T13:35:01.333Z,91.03
2023-02-14T13:37:28.438Z,91.08
2023-02-14T13:40:03.040Z,90.80
2023-02-14T13:42:47.762Z,91.32
2023-02-14T13:45:29.191Z,91.69
2023-02-14T13:48:07.501Z,91.69
2023-02-14T13:50:39.096Z,90.85
2023-02-14T13:53:10.056Z,90.85
2023-02-14T13:55:42.825Z,90.72
2023-02-14T13:58:21.606Z,90.79
2023-02-14T14:00:52.892Z,89.68
2023-02-14T14:03:28.796Z,89.06
2023-02-14T14:06:03.803Z,89.56
2023-02-14T14:08:31.368Z,89.46
2023-02-14T14:11:00.285Z,89.02
2023-02-14T14:13:42.019Z,88.59
2023-02-14T14:16:23.712Z,88.51
2023-02-14T14:18:59.026Z,88.02
2023-02-14T14:21:30.600Z,87.89
2023-02-14T14:24:21.911Z,88.17
2023-02-14T14:27:20.830Z,88.12
2023-02-14T14:29:50.980Z,87.37
2023-02-14T14:32:37.803Z,87.56
2023-02-14T14:35:20.906Z,87.09
2023-02-14T14:37:56.016Z,87.26
2023-02-14T14:40:34.530Z,89.25
2023-02-14T14:43:14.243Z,88.78
2023-02-14T14:45:41.972Z,89.98
2023-02-14T14:48:12.436Z,88.92
2023-02-14T14:50:43.244Z,88.20
2023-02-14T14:53:31.280Z,88.80
2023-02-14T14:55:58.389Z,88.75
2023-02-14T14:58:37.298Z,87.73
2023-02-14T15:01:05.667Z,88.31
2023-02-14T15:03:32.696Z,88.55
2023-02-14T15:06:07.505Z,88.96
2023-02-14T15:08:34.685Z,88.53
2023-02-14T15:11:11.432Z,88.79
2023-02-14T15:13:54.952Z,88.35
2023-02-14T15:16:32.566Z,88.14
2023-02-14T15:19:08.858Z,88.32
2023-02-14T15:21:35.577Z,88.43
2023-02-14T15:24:03.246Z,87.94
2023-02-14T15:26:32.324Z,88.47
2023-02-14T15:29:01.778Z,87.62
2023-02-14T15:31:30.367Z,87.61
2023-02-14T15:34:00.055Z,88.12
2023-02-14T15:36:27.033Z,89.02
2023-02-14T15:38:56.654Z,89.33
2023-02-14T15:41:26.722Z,89.69
2023-02-14T15:43:55.196Z,89.71
2023-02-14T15:46:24.630Z,90.11
2023-02-14T15:48:51.741Z,90.49
2023-02-14T15:51:26.963Z,90.92
2023-02-14T15:53:58.162Z,91.29
2023-02-14T15:56:29.202Z,91.55
2023-02-14T15:58:59.287Z,90.96
2023-02-14T16:01:27.159Z,91.12
2023-02-14T16:03:59.898Z,90.95
2023-02-14T16:06:40.166Z,91.19
2023-02-14T16:09:24.708Z,91.10
2023-02-14T16:11:53.237Z,91.88
2023-02-14T16:14:35.181Z,91.84
2023-02-14T16:17:06.801Z,92.16
2023-02-14T16:19:35.954Z,91.93
2023-02-14T16:22:02.638Z,92.19
2023-02-14T16:24:29.180Z,91.81
2023-02-14T16:26:55.724Z,92.24
2023-02-14T16:29:24.685Z,92.59
2023-02-14T16:34:40.470Z,92.88
2023-02-14T16:37:17.576Z,92.91
2023-02-14T16:39:44.728Z,93.06
2023-02-14T16:42:18.271Z,93.58
2023-02-14T16:44:46.336Z,93.44
2023-02-14T16:47:14.363Z,93.76
2023-02-14T16:49:41.052Z,94.02
2023-02-14T16:52:14.379Z,94.36
2023-02-14T16:54:40.914Z,95.09
2023-02-14T16:57:14.502Z,95.37
2023-02-14T16:59:41.114Z,95.13
2023-02-14T17:02:07.808Z,95.04
2023-02-14T17:04:34.290Z,95.52
2023-02-14T17:07:05.692Z,95.46
2023-02-14T17:09:40.094Z,95.57
2023-02-14T17:12:14.678Z,96.20
2023-02-14T17:14:43.338Z,96.22
2023-02-14T17:17:10.531Z,96.27
2023-02-14T17:19:37.486Z,96.38
2023-02-14T17:22:04.721Z,96.64
2023-02-14T17:24:31.701Z,96.28
2023-02-14T17:26:58.536Z,97.27
2023-02-14T17:29:25.142Z,97.32
2023-02-14T17:31:51.793Z,97.91
2023-02-14T17:34:18.244Z,98.14
2023-02-14T17:36:44.960Z,97.64
2023-02-14T17:39:11.740Z,97.70
2023-02-14T17:41:38.302Z,97.75
2023-02-14T17:44:06.983Z,98.81
2023-02-14T17:46:33.478Z,98.70
2023-02-14T17:49:02.544Z,98.66
2023-02-14T17:51:29.667Z,98.42
2023-02-14T17:53:58.958Z,99.59
2023-02-14T17:56:26.095Z,98.62
2023-02-14T17:58:55.062Z,99.02
2023-02-14T18:01:27.901Z,98.99
2023-02-14T18:03:55.038Z,99.86
2023-02-14T18:06:21.918Z,99.35
2023-02-14T18:08:51.665Z,98.89
2023-02-14T18:11:20.030Z,98.93
2023-02-14T18:13:46.856Z,100.00
2023-02-14T18:16:16.608Z,99.63
2023-02-14T18:18:43.429Z,99.94
2023-02-14T18:21:12.103Z,100.00
2023-02-14T18:23:39.188Z,100.00
2023-02-14T18:26:10.333Z,100.00
2023-02-14T18:28:36.928Z,100.00
2023-02-14T18:31:22.304Z,100.00
2023-02-14T18:33:50.630Z,100.00
2023-02-14T18:36:20.412Z,100.00
2023-02-14T18:38:48.514Z,100.00
2023-02-14T18:41:17.578Z,100.00
2023-02-14T18:43:52.380Z,99.77
2023-02-14T18:46:25.965Z,100.00
2023-02-14T18:48:53.020Z,100.00
2023-02-14T18:51:24.506Z,100.00
2023-02-14T18:53:52.197Z,100.00
2023-02-14T18:56:22.505Z,100.00
2023-02-14T18:58:52.573Z,100.00
2023-02-14T19:01:21.840Z,100.00
2023-02-14T19:03:49.733Z,100.00
2023-02-14T19:06:17.878Z,100.00
2023-02-14T19:08:45.103Z,100.00
2023-02-14T19:11:13.636Z,100.00
2023-02-14T19:13:47.770Z,100.00
2023-02-14T19:16:18.454Z,100.00
2023-02-14T19:18:45.416Z,100.00
2023-02-14T19:21:21.274Z,100.00
2023-02-14T19:23:49.533Z,100.00
2023-02-14T19:26:21.029Z,100.00
2023-02-14T19:28:49.545Z,100.00
2023-02-14T19:31:16.754Z,100.00
2023-02-14T19:33:45.558Z,100.00
2023-02-14T19:36:14.280Z,100.00
2023-02-14T19:38:42.580Z,100.00
2023-02-14T19:41:19.225Z,100.00
2023-02-14T19:43:46.821Z,100.00
2023-02-14T19:46:14.340Z,100.00
2023-02-14T19:48:40.969Z,100.00
2023-02-14T19:51:07.595Z,100.00
2023-02-14T19:53:34.765Z,100.00
2023-02-14T19:56:01.430Z,100.00
2023-02-14T19:58:27.882Z,100.00
2023-02-14T20:00:59.888Z,100.00
2023-02-14T20:03:26.876Z,100.00
2023-02-14T20:05:53.388Z,100.00
2023-02-14T20:08:19.945Z,100.00
2023-02-14T20:10:46.399Z,100.00
2023-02-14T20:13:12.889Z,100.00
2023-02-14T20:15:40.050Z,100.00
2023-02-14T20:18:07.526Z,100.00
2023-02-14T20:20:53.934Z,100.00
2023-02-14T20:23:20.394Z,100.00
2023-02-14T20:25:47.077Z,100.00
2023-02-14T20:28:13.596Z,100.00
2023-02-14T20:30:40.258Z,100.00
2023-02-14T20:33:06.814Z,100.00
2023-02-14T20:35:37.991Z,100.00
2023-02-14T20:38:07.866Z,100.00
2023-02-14T20:40:39.316Z,100.00
2023-02-14T20:43:06.055Z,100.00
2023-02-14T20:45:32.938Z,100.00
2023-02-14T20:48:03.283Z,100.00
2023-02-14T20:50:31.192Z,100.00
2023-02-14T20:52:58.110Z,100.00
2023-02-14T20:55:27.034Z,100.00
2023-02-14T20:57:53.815Z,100.00
2023-02-14T21:00:20.343Z,100.00
2023-02-14T21:02:46.851Z,100.00
2023-02-14T21:05:18.318Z,100.00
2023-02-14T21:07:44.869Z,100.00
2023-02-14T21:10:11.523Z,100.00
2023-02-14T21:12:38.604Z,100.00
2023-02-14T21:15:06.900Z,100.00
2023-02-14T21:17:33.858Z,100.00
2023-02-14T21:20:00.343Z,100.00
2023-02-14T21:22:26.863Z,100.00
2023-02-14T21:24:53.343Z,100.00
2023-02-14T21:27:19.796Z,100.00
2023-02-14T21:29:46.363Z,100.00
2023-02-14T21:32:12.923Z,100.00
2023-02-14T21:34:39.495Z,100.00
2023-02-14T21:37:06.211Z,100.00
2023-02-14T21:39:35.575Z,100.00
2023-02-14T21:42:02.258Z,100.00
2023-02-14T21:44:47.254Z,100.00
2023-02-14T21:47:13.858Z,100.00
2023-02-14T21:49:58.905Z,100.00
2023-02-14T21:52:25.478Z,100.00
2023-02-14T21:54:51.912Z,100.00
2023-02-14T21:57:18.343Z,100.00
2023-02-14T21:59:44.860Z,100.00
2023-02-14T22:02:12.185Z,100.00
2023-02-14T22:04:38.815Z,100.00
2023-02-14T22:07:05.325Z,100.00
2023-02-14T22:09:31.821Z,100.00
2023-02-14T22:11:58.310Z,100.00
2023-02-14T22:14:25.328Z,100.00
2023-02-14T22:16:51.958Z,100.00
2023-02-14T22:19:18.510Z,100.00
2023-02-14T22:21:45.024Z,100.00
2023-02-14T22:24:12.487Z,100.00
2023-02-14T22:26:40.521Z,100.00
2023-02-14T22:29:09.182Z,100.00
2023-02-14T22:31:38.173Z,100.00
2023-02-14T22:34:06.758Z,100.00
2023-02-14T22:36:33.456Z,100.00
2023-02-14T22:38:59.882Z,100.00
2023-02-14T22:41:26.797Z,100.00
2023-02-14T22:43:54.062Z,100.00
2023-02-14T22:46:23.590Z,100.00
2023-02-14T22:48:51.794Z,100.00
2023-02-14T22:51:28.346Z,100.00
2023-02-14T22:54:00.286Z,100.00
2023-02-14T22:56:29.480Z,100.00
2023-02-14T22:58:58.440Z,100.00
2023-02-14T23:01:25.575Z,100.00
2023-02-14T23:03:57.520Z,100.00
2023-02-14T23:06:26.209Z,100.00
2023-02-14T23:08:54.268Z,100.00
2023-02-14T23:11:26.449Z,100.00
2023-02-14T23:14:11.680Z,100.00
2023-02-14T23:16:56.961Z,100.00
2023-02-14T23:19:44.348Z,100.00
2023-02-14T23:22:12.748Z,100.00
2023-02-14T23:24:39.627Z,100.00
2023-02-14T23:27:07.808Z,100.00
2023-02-14T23:29:34.331Z,100.00
2023-02-14T23:32:00.772Z,100.00
2023-02-14T23:34:29.469Z,100.00
2023-02-14T23:36:55.955Z,100.00
2023-02-14T23:39:22.855Z,100.00
2023-02-14T23:41:49.637Z,100.00
2023-02-14T23:44:21.593Z,100.00
2023-02-14T23:46:49.930Z,100.00
2023-02-14T23:49:17.675Z,100.00
2023-02-14T23:51:45.484Z,100.00
2023-02-14T23:54:12.096Z,100.00
2023-02-14T23:56:39.314Z,100.00
2023-02-14T23:59:07.115Z,100.00
